sensor_id;sensor_type;location;lat;lon;timestamp;pressure;altitude;pressure_sealevel;temperature;humidity
2397;BME280;1209;48.410;9.054;2023-05-09T00:00:27;96519.53;;;13.80;100.00
2397;BME280;1209;48.410;9.054;2023-05-09T00:02:53;96520.53;;;13.79;100.00
2397;BME280;1209;48.410;9.054;2023-05-09T00:05:19;96512.91;;;13.84;100.00
2397;BME280;1209;48.410;9.054;2023-05-09T00:07:45;96511.28;;;13.83;100.00
2397;BME280;1209;48.410;9.054;2023-05-09T00:10:11;96512.59;;;13.73;100.00
2397;BME280;1209;48.410;9.054;2023-05-09T00:12:36;96505.34;;;13.75;100.00
2397;BME280;1209;48.410;9.054;2023-05-09T00:15:01;96508.41;;;13.78;100.00
2397;BME280;1209;48.410;9.054;2023-05-09T00:17:27;96515.97;;;13.67;100.00
2397;BME280;1209;48.410;9.054;2023-05-09T00:19:53;96509.84;;;13.81;100.00
2397;BME280;1209;48.410;9.054;2023-05-09T00:22:19;96503.59;;;13.82;100.00
2397;BME280;1209;48.410;9.054;2023-05-09T00:24:48;96499.28;;;13.74;100.00
2397;BME280;1209;48.410;9.054;2023-05-09T00:27:14;96500.16;;;13.81;100.00
2397;BME280;1209;48.410;9.054;2023-05-09T00:29:40;96495.72;;;13.82;100.00
2397;BME280;1209;48.410;9.054;2023-05-09T00:32:05;96496.34;;;13.84;100.00
2397;BME280;1209;48.410;9.054;2023-05-09T00:34:31;96497.03;;;13.71;100.00
2397;BME280;1209;48.410;9.054;2023-05-09T00:36:57;96501.84;;;13.68;100.00
2397;BME280;1209;48.410;9.054;2023-05-09T00:39:22;96503.13;;;13.72;100.00
2397;BME280;1209;48.410;9.054;2023-05-09T00:41:48;96502.66;;;13.68;100.00
2397;BME280;1209;48.410;9.054;2023-05-09T00:44:13;96500.50;;;13.72;100.00
2397;BME280;1209;48.410;9.054;2023-05-09T00:46:38;96490.34;;;13.69;100.00
2397;BME280;1209;48.410;9.054;2023-05-09T00:49:04;96493.53;;;13.64;100.00
2397;BME280;1209;48.410;9.054;2023-05-09T00:51:30;96493.09;;;13.61;100.00
2397;BME280;1209;48.410;9.054;2023-05-09T00:53:57;96491.09;;;13.63;100.00
2397;BME280;1209;48.410;9.054;2023-05-09T00:56:22;96493.03;;;13.54;100.00
2397;BME280;1209;48.410;9.054;2023-05-09T00:58:47;96495.66;;;13.54;100.00
2397;BME280;1209;48.410;9.054;2023-05-09T01:01:13;96490.09;;;13.42;100.00
2397;BME280;1209;48.410;9.054;2023-05-09T01:03:40;96492.28;;;13.39;100.00
2397;BME280;1209;48.410;9.054;2023-05-09T01:06:12;96494.22;;;13.51;100.00
2397;BME280;1209;48.410;9.054;2023-05-09T01:08:57;96485.22;;;13.61;100.00
2397;BME280;1209;48.410;9.054;2023-05-09T01:17:35;96464.88;;;13.41;100.00
2397;BME280;1209;48.410;9.054;2023-05-09T01:25:48;96472.09;;;13.61;100.00
2397;BME280;1209;48.410;9.054;2023-05-09T01:28:33;96468.16;;;13.71;100.00
2397;BME280;1209;48.410;9.054;2023-05-09T01:31:01;96462.28;;;13.69;100.00
2397;BME280;1209;48.410;9.054;2023-05-09T01:33:30;96460.13;;;13.73;100.00
2397;BME280;1209;48.410;9.054;2023-05-09T01:36:01;96455.22;;;13.70;100.00
2397;BME280;1209;48.410;9.054;2023-05-09T01:38:29;96451.53;;;13.64;100.00
2397;BME280;1209;48.410;9.054;2023-05-09T01:40:57;96450.16;;;13.68;100.00
2397;BME280;1209;48.410;9.054;2023-05-09T01:43:24;96448.00;;;13.72;100.00
2397;BME280;1209;48.410;9.054;2023-05-09T01:45:52;96446.91;;;13.66;100.00
2397;BME280;1209;48.410;9.054;2023-05-09T01:48:19;96451.53;;;13.64;100.00
2397;BME280;1209;48.410;9.054;2023-05-09T01:50:46;96450.34;;;13.67;100.00
2397;BME280;1209;48.410;9.054;2023-05-09T01:53:13;96452.78;;;13.68;100.00
2397;BME280;1209;48.410;9.054;2023-05-09T01:55:41;96444.63;;;13.57;100.00
2397;BME280;1209;48.410;9.054;2023-05-09T01:58:08;96450.22;;;13.53;100.00
2397;BME280;1209;48.410;9.054;2023-05-09T02:00:35;96456.91;;;13.56;100.00
2397;BME280;1209;48.410;9.054;2023-05-09T02:03:01;96456.91;;;13.56;100.00
2397;BME280;1209;48.410;9.054;2023-05-09T02:05:29;96456.28;;;13.54;100.00
2397;BME280;1209;48.410;9.054;2023-05-09T02:07:56;96457.72;;;13.57;100.00
2397;BME280;1209;48.410;9.054;2023-05-09T02:10:23;96450.03;;;13.55;100.00
2397;BME280;1209;48.410;9.054;2023-05-09T02:12:53;96452.66;;;13.55;100.00
2397;BME280;1209;48.410;9.054;2023-05-09T02:15:18;96453.66;;;13.54;100.00
2397;BME280;1209;48.410;9.054;2023-05-09T02:17:44;96457.44;;;13.45;100.00
2397;BME280;1209;48.410;9.054;2023-05-09T02:20:10;96455.69;;;13.52;100.00
2397;BME280;1209;48.410;9.054;2023-05-09T02:22:36;96453.75;;;13.39;100.00
2397;BME280;1209;48.410;9.054;2023-05-09T02:25:05;96452.88;;;13.32;100.00
2397;BME280;1209;48.410;9.054;2023-05-09T02:27:35;96449.13;;;13.41;100.00
2397;BME280;1209;48.410;9.054;2023-05-09T02:30:06;96451.63;;;13.28;100.00
2397;BME280;1209;48.410;9.054;2023-05-09T02:32:33;96439.22;;;13.22;100.00
2397;BME280;1209;48.410;9.054;2023-05-09T02:35:00;96435.94;;;13.35;100.00
2397;BME280;1209;48.410;9.054;2023-05-09T02:37:26;96437.69;;;13.28;100.00
2397;BME280;1209;48.410;9.054;2023-05-09T02:39:53;96444.28;;;13.23;100.00
2397;BME280;1209;48.410;9.054;2023-05-09T02:42:23;96437.41;;;13.22;100.00
2397;BME280;1209;48.410;9.054;2023-05-09T02:44:54;96437.16;;;13.17;100.00
2397;BME280;1209;48.410;9.054;2023-05-09T02:47:20;96427.63;;;13.16;100.00
2397;BME280;1209;48.410;9.054;2023-05-09T02:49:46;96429.63;;;13.14;100.00
2397;BME280;1209;48.410;9.054;2023-05-09T02:52:12;96414.59;;;13.02;100.00
2397;BME280;1209;48.410;9.054;2023-05-09T02:54:37;96426.94;;;13.08;100.00
2397;BME280;1209;48.410;9.054;2023-05-09T02:57:03;96419.78;;;13.16;100.00
2397;BME280;1209;48.410;9.054;2023-05-09T02:59:29;96415.28;;;13.10;100.00
2397;BME280;1209;48.410;9.054;2023-05-09T03:01:54;96416.41;;;13.01;100.00
2397;BME280;1209;48.410;9.054;2023-05-09T03:04:19;96419.91;;;13.08;100.00
2397;BME280;1209;48.410;9.054;2023-05-09T03:06:45;96408.16;;;13.04;100.00
2397;BME280;1209;48.410;9.054;2023-05-09T03:09:10;96418.41;;;12.99;100.00
2397;BME280;1209;48.410;9.054;2023-05-09T03:11:35;96412.72;;;12.96;100.00
2397;BME280;1209;48.410;9.054;2023-05-09T03:14:02;96414.22;;;13.05;100.00
2397;BME280;1209;48.410;9.054;2023-05-09T03:16:27;96415.34;;;12.96;100.00
2397;BME280;1209;48.410;9.054;2023-05-09T03:18:53;96410.28;;;12.94;100.00
2397;BME280;1209;48.410;9.054;2023-05-09T03:21:18;96412.19;;;12.85;100.00
2397;BME280;1209;48.410;9.054;2023-05-09T03:23:43;96409.72;;;12.63;100.00
2397;BME280;1209;48.410;9.054;2023-05-09T03:26:09;96399.84;;;12.79;100.00
2397;BME280;1209;48.410;9.054;2023-05-09T03:28:34;96403.53;;;12.85;100.00
2397;BME280;1209;48.410;9.054;2023-05-09T03:30:59;96396.09;;;12.88;100.00
2397;BME280;1209;48.410;9.054;2023-05-09T03:33:25;96396.66;;;12.84;100.00
2397;BME280;1209;48.410;9.054;2023-05-09T03:35:51;96391.34;;;12.77;100.00
2397;BME280;1209;48.410;9.054;2023-05-09T03:38:16;96384.94;;;12.80;100.00
2397;BME280;1209;48.410;9.054;2023-05-09T03:40:41;96383.38;;;12.71;100.00
2397;BME280;1209;48.410;9.054;2023-05-09T03:43:07;96390.19;;;12.65;100.00
2397;BME280;1209;48.410;9.054;2023-05-09T03:45:32;96392.72;;;12.58;100.00
2397;BME280;1209;48.410;9.054;2023-05-09T03:47:57;96393.53;;;12.59;100.00
2397;BME280;1209;48.410;9.054;2023-05-09T03:50:23;96383.06;;;12.59;100.00
2397;BME280;1209;48.410;9.054;2023-05-09T03:52:48;96397.53;;;12.55;100.00
2397;BME280;1209;48.410;9.054;2023-05-09T03:55:15;96393.91;;;12.56;100.00
2397;BME280;1209;48.410;9.054;2023-05-09T03:57:40;96399.00;;;12.43;100.00
2397;BME280;1209;48.410;9.054;2023-05-09T04:00:06;96393.56;;;12.29;100.00
2397;BME280;1209;48.410;9.054;2023-05-09T04:02:32;96388.44;;;12.36;100.00
2397;BME280;1209;48.410;9.054;2023-05-09T04:04:59;96391.31;;;12.26;100.00
2397;BME280;1209;48.410;9.054;2023-05-09T04:07:24;96390.31;;;12.27;100.00
2397;BME280;1209;48.410;9.054;2023-05-09T04:09:50;96386.19;;;12.33;100.00
2397;BME280;1209;48.410;9.054;2023-05-09T04:12:16;96393.56;;;12.29;100.00
2397;BME280;1209;48.410;9.054;2023-05-09T04:14:41;96383.47;;;12.26;100.00
2397;BME280;1209;48.410;9.054;2023-05-09T04:17:07;96386.69;;;12.28;100.00
2397;BME280;1209;48.410;9.054;2023-05-09T04:19:32;96386.25;;;12.25;100.00
2397;BME280;1209;48.410;9.054;2023-05-09T04:21:58;96391.69;;;12.09;100.00
2397;BME280;1209;48.410;9.054;2023-05-09T04:24:23;96382.94;;;12.16;100.00
2397;BME280;1209;48.410;9.054;2023-05-09T04:26:48;96386.06;;;12.26;100.00
2397;BME280;1209;48.410;9.054;2023-05-09T04:29:15;96394.41;;;12.30;100.00
2397;BME280;1209;48.410;9.054;2023-05-09T04:31:40;96392.22;;;12.19;100.00
2397;BME280;1209;48.410;9.054;2023-05-09T04:34:05;96394.41;;;12.30;100.00
2397;BME280;1209;48.410;9.054;2023-05-09T04:36:31;96392.75;;;12.29;100.00
2397;BME280;1209;48.410;9.054;2023-05-09T04:38:58;96388.59;;;12.20;100.00
2397;BME280;1209;48.410;9.054;2023-05-09T04:41:23;96383.47;;;12.12;100.00
2397;BME280;1209;48.410;9.054;2023-05-09T04:43:49;96397.28;;;12.06;100.00
2397;BME280;1209;48.410;9.054;2023-05-09T04:46:14;96396.19;;;12.00;100.00
2397;BME280;1209;48.410;9.054;2023-05-09T04:48:40;96385.38;;;12.03;100.00
2397;BME280;1209;48.410;9.054;2023-05-09T04:51:05;96380.50;;;12.15;100.00
2397;BME280;1209;48.410;9.054;2023-05-09T04:53:31;96378.41;;;12.25;100.00
2397;BME280;1209;48.410;9.054;2023-05-09T04:55:58;96377.16;;;12.36;100.00
2397;BME280;1209;48.410;9.054;2023-05-09T04:58:23;96380.91;;;12.48;100.00
2397;BME280;1209;48.410;9.054;2023-05-09T05:00:50;96371.34;;;12.55;100.00
2397;BME280;1209;48.410;9.054;2023-05-09T05:03:15;96368.44;;;12.50;100.00
2397;BME280;1209;48.410;9.054;2023-05-09T05:05:42;96372.91;;;12.71;100.00
2397;BME280;1209;48.410;9.054;2023-05-09T05:08:07;96375.44;;;12.79;100.00
2397;BME280;1209;48.410;9.054;2023-05-09T05:10:32;96371.72;;;12.88;100.00
2397;BME280;1209;48.410;9.054;2023-05-09T05:12:58;96367.28;;;12.88;100.00
2397;BME280;1209;48.410;9.054;2023-05-09T05:15:23;96374.81;;;12.98;100.00
2397;BME280;1209;48.410;9.054;2023-05-09T05:17:48;96366.84;;;13.06;100.00
2397;BME280;1209;48.410;9.054;2023-05-09T05:20:14;96370.78;;;13.17;100.00
2397;BME280;1209;48.410;9.054;2023-05-09T05:22:39;96369.22;;;13.22;100.00
2397;BME280;1209;48.410;9.054;2023-05-09T05:25:05;96366.13;;;13.34;100.00
2397;BME280;1209;48.410;9.054;2023-05-09T05:27:31;96362.63;;;13.27;100.00
2397;BME280;1209;48.410;9.054;2023-05-09T05:29:56;96353.19;;;13.32;100.00
2397;BME280;1209;48.410;9.054;2023-05-09T05:32:21;96357.34;;;13.48;100.00
2397;BME280;1209;48.410;9.054;2023-05-09T05:34:47;96359.25;;;13.61;100.00
2397;BME280;1209;48.410;9.054;2023-05-09T05:37:12;96351.19;;;13.62;100.00
2397;BME280;1209;48.410;9.054;2023-05-09T05:39:37;96355.69;;;13.68;100.00
2397;BME280;1209;48.410;9.054;2023-05-09T05:42:03;96355.88;;;13.67;100.00
2397;BME280;1209;48.410;9.054;2023-05-09T05:44:28;96350.03;;;13.71;100.00
2397;BME280;1209;48.410;9.054;2023-05-09T05:46:53;96348.41;;;13.70;100.00
2397;BME280;1209;48.410;9.054;2023-05-09T05:49:19;96361.53;;;13.70;100.00
2397;BME280;1209;48.410;9.054;2023-05-09T05:51:44;96356.28;;;13.70;100.00
2397;BME280;1209;48.410;9.054;2023-05-09T05:54:09;96363.69;;;13.60;100.00
2397;BME280;1209;48.410;9.054;2023-05-09T05:56:35;96363.06;;;13.58;100.00
2397;BME280;1209;48.410;9.054;2023-05-09T05:59:00;96363.53;;;13.68;100.00
2397;BME280;1209;48.410;9.054;2023-05-09T06:01:25;96358.56;;;13.73;100.00
2397;BME280;1209;48.410;9.054;2023-05-09T06:03:51;96358.22;;;13.83;100.00
2397;BME280;1209;48.410;9.054;2023-05-09T06:06:20;96356.41;;;13.83;100.00
2397;BME280;1209;48.410;9.054;2023-05-09T06:08:46;96357.06;;;13.92;100.00
2397;BME280;1209;48.410;9.054;2023-05-09T06:11:14;96354.75;;;13.76;100.00
2397;BME280;1209;48.410;9.054;2023-05-09T06:13:39;96353.25;;;13.95;100.00
2397;BME280;1209;48.410;9.054;2023-05-09T06:16:05;96356.63;;;13.89;100.00
2397;BME280;1209;48.410;9.054;2023-05-09T06:18:30;96346.59;;;13.99;100.00
2397;BME280;1209;48.410;9.054;2023-05-09T06:20:55;96345.88;;;14.18;100.00
2397;BME280;1209;48.410;9.054;2023-05-09T06:23:21;96348.69;;;14.16;100.00
2397;BME280;1209;48.410;9.054;2023-05-09T06:25:47;96342.50;;;14.24;100.00
2397;BME280;1209;48.410;9.054;2023-05-09T06:28:13;96336.53;;;14.43;100.00
2397;BME280;1209;48.410;9.054;2023-05-09T06:30:38;96343.00;;;14.47;100.00
2397;BME280;1209;48.410;9.054;2023-05-09T06:33:03;96350.00;;;14.34;100.00
2397;BME280;1209;48.410;9.054;2023-05-09T06:35:28;96345.34;;;14.29;100.00
2397;BME280;1209;48.410;9.054;2023-05-09T06:37:54;96337.59;;;14.56;100.00
2397;BME280;1209;48.410;9.054;2023-05-09T06:40:19;96344.34;;;14.78;100.00
2397;BME280;1209;48.410;9.054;2023-05-09T06:42:45;96341.94;;;14.90;100.00
2397;BME280;1209;48.410;9.054;2023-05-09T06:45:10;96340.72;;;15.05;100.00
2397;BME280;1209;48.410;9.054;2023-05-09T06:47:36;96339.34;;;15.23;100.00
2397;BME280;1209;48.410;9.054;2023-05-09T06:50:01;96343.00;;;15.22;100.00
2397;BME280;1209;48.410;9.054;2023-05-09T06:52:26;96343.03;;;15.61;100.00
2397;BME280;1209;48.410;9.054;2023-05-09T06:54:52;96334.50;;;15.59;100.00
2397;BME280;1209;48.410;9.054;2023-05-09T06:57:18;96337.47;;;16.02;100.00
2397;BME280;1209;48.410;9.054;2023-05-09T06:59:43;96327.50;;;16.24;100.00
2397;BME280;1209;48.410;9.054;2023-05-09T07:02:09;96326.03;;;16.35;100.00
2397;BME280;1209;48.410;9.054;2023-05-09T07:04:34;96320.13;;;16.40;100.00
2397;BME280;1209;48.410;9.054;2023-05-09T07:06:59;96319.09;;;16.47;100.00
2397;BME280;1209;48.410;9.054;2023-05-09T07:09:25;96309.94;;;16.94;100.00
2397;BME280;1209;48.410;9.054;2023-05-09T07:11:53;96311.66;;;17.39;100.00
2397;BME280;1209;48.410;9.054;2023-05-09T07:14:19;96308.34;;;17.43;100.00
2397;BME280;1209;48.410;9.054;2023-05-09T07:16:44;96307.22;;;17.33;100.00
2397;BME280;1209;48.410;9.054;2023-05-09T07:19:10;96301.56;;;17.29;100.00
2397;BME280;1209;48.410;9.054;2023-05-09T07:21:36;96302.75;;;17.08;100.00
2397;BME280;1209;48.410;9.054;2023-05-09T07:24:01;96298.19;;;16.90;100.00
2397;BME280;1209;48.410;9.054;2023-05-09T07:26:27;96293.19;;;16.82;100.00
2397;BME280;1209;48.410;9.054;2023-05-09T07:28:52;96287.91;;;16.82;100.00
2397;BME280;1209;48.410;9.054;2023-05-09T07:31:17;96282.06;;;16.74;100.00
2397;BME280;1209;48.410;9.054;2023-05-09T07:33:43;96274.00;;;16.62;100.00
2397;BME280;1209;48.410;9.054;2023-05-09T07:36:08;96259.22;;;16.61;100.00
2397;BME280;1209;48.410;9.054;2023-05-09T07:38:37;96263.44;;;16.68;100.00
2397;BME280;1209;48.410;9.054;2023-05-09T07:41:03;96262.88;;;16.60;100.00
2397;BME280;1209;48.410;9.054;2023-05-09T07:43:28;96250.88;;;16.64;100.00
2397;BME280;1209;48.410;9.054;2023-05-09T07:45:54;96247.19;;;16.72;100.00
2397;BME280;1209;48.410;9.054;2023-05-09T07:48:19;96248.25;;;16.64;100.00
2397;BME280;1209;48.410;9.054;2023-05-09T07:50:44;96252.91;;;16.62;100.00
2397;BME280;1209;48.410;9.054;2023-05-09T07:53:10;96243.06;;;16.44;100.00
2397;BME280;1209;48.410;9.054;2023-05-09T07:55:35;96240.81;;;16.48;100.00
2397;BME280;1209;48.410;9.054;2023-05-09T07:58:01;96238.75;;;16.56;100.00
2397;BME280;1209;48.410;9.054;2023-05-09T08:00:26;96233.75;;;16.80;100.00
2397;BME280;1209;48.410;9.054;2023-05-09T08:02:52;96242.25;;;16.82;100.00
2397;BME280;1209;48.410;9.054;2023-05-09T08:05:18;96235.47;;;16.92;100.00
2397;BME280;1209;48.410;9.054;2023-05-09T08:07:43;96234.13;;;16.83;100.00
2397;BME280;1209;48.410;9.054;2023-05-09T08:10:09;96226.22;;;17.08;100.00
2397;BME280;1209;48.410;9.054;2023-05-09T08:12:35;96224.31;;;16.90;100.00
2397;BME280;1209;48.410;9.054;2023-05-09T08:15:01;96227.44;;;16.81;100.00
2397;BME280;1209;48.410;9.054;2023-05-09T08:17:26;96214.22;;;16.87;100.00
2397;BME280;1209;48.410;9.054;2023-05-09T08:19:52;96218.63;;;16.93;100.00
2397;BME280;1209;48.410;9.054;2023-05-09T08:22:18;96215.91;;;17.07;100.00
2397;BME280;1209;48.410;9.054;2023-05-09T08:24:44;96202.69;;;17.07;100.00
2397;BME280;1209;48.410;9.054;2023-05-09T08:27:11;96201.34;;;17.22;100.00
2397;BME280;1209;48.410;9.054;2023-05-09T08:29:38;96201.41;;;17.16;100.00
2397;BME280;1209;48.410;9.054;2023-05-09T08:32:04;96201.63;;;17.14;100.00
2397;BME280;1209;48.410;9.054;2023-05-09T08:34:29;96191.88;;;17.15;100.00
2397;BME280;1209;48.410;9.054;2023-05-09T08:37:02;96196.28;;;17.21;100.00
2397;BME280;1209;48.410;9.054;2023-05-09T08:39:29;96188.06;;;17.47;100.00
2397;BME280;1209;48.410;9.054;2023-05-09T08:41:57;96187.50;;;17.63;100.00
2397;BME280;1209;48.410;9.054;2023-05-09T08:44:24;96182.09;;;17.58;100.00
2397;BME280;1209;48.410;9.054;2023-05-09T08:46:51;96184.91;;;17.39;100.00
2397;BME280;1209;48.410;9.054;2023-05-09T08:49:22;96186.81;;;17.31;100.00
2397;BME280;1209;48.410;9.054;2023-05-09T08:51:47;96176.25;;;17.31;100.00
2397;BME280;1209;48.410;9.054;2023-05-09T08:54:14;96185.94;;;17.38;100.00
2397;BME280;1209;48.410;9.054;2023-05-09T08:56:40;96184.47;;;17.42;100.00
2397;BME280;1209;48.410;9.054;2023-05-09T08:59:05;96180.47;;;17.57;100.00
2397;BME280;1209;48.410;9.054;2023-05-09T09:01:32;96175.78;;;17.78;100.00
2397;BME280;1209;48.410;9.054;2023-05-09T09:03:57;96167.94;;;17.71;100.00
2397;BME280;1209;48.410;9.054;2023-05-09T09:06:24;96169.75;;;17.89;100.00
2397;BME280;1209;48.410;9.054;2023-05-09T09:08:51;96172.41;;;17.89;100.00
2397;BME280;1209;48.410;9.054;2023-05-09T09:11:18;96172.88;;;18.46;100.00
2397;BME280;1209;48.410;9.054;2023-05-09T09:13:46;96172.03;;;18.75;100.00
2397;BME280;1209;48.410;9.054;2023-05-09T09:16:19;96176.88;;;18.90;100.00
2397;BME280;1209;48.410;9.054;2023-05-09T09:18:45;96170.56;;;19.14;100.00
2397;BME280;1209;48.410;9.054;2023-05-09T09:21:11;96168.94;;;18.78;100.00
2397;BME280;1209;48.410;9.054;2023-05-09T09:23:40;96164.19;;;18.69;100.00
2397;BME280;1209;48.410;9.054;2023-05-09T09:26:07;96163.22;;;18.93;100.00
2397;BME280;1209;48.410;9.054;2023-05-09T09:28:33;96161.13;;;19.18;100.00
2397;BME280;1209;48.410;9.054;2023-05-09T09:30:59;96151.44;;;19.24;100.00
2397;BME280;1209;48.410;9.054;2023-05-09T09:33:26;96148.00;;;19.24;100.00
2397;BME280;1209;48.410;9.054;2023-05-09T09:35:54;96140.56;;;19.72;100.00
2397;BME280;1209;48.410;9.054;2023-05-09T09:38:20;96131.19;;;19.93;100.00
2397;BME280;1209;48.410;9.054;2023-05-09T09:40:55;96131.84;;;20.00;100.00
2397;BME280;1209;48.410;9.054;2023-05-09T09:43:30;96127.13;;;20.02;100.00
2397;BME280;1209;48.410;9.054;2023-05-09T09:45:59;96121.50;;;19.99;100.00
2397;BME280;1209;48.410;9.054;2023-05-09T09:48:26;96124.41;;;20.14;100.00
2397;BME280;1209;48.410;9.054;2023-05-09T09:50:54;96115.97;;;20.17;100.00
2397;BME280;1209;48.410;9.054;2023-05-09T09:53:21;96107.69;;;20.75;100.00
2397;BME280;1209;48.410;9.054;2023-05-09T09:55:49;96095.78;;;20.61;100.00
2397;BME280;1209;48.410;9.054;2023-05-09T09:58:18;96097.31;;;20.74;100.00
2397;BME280;1209;48.410;9.054;2023-05-09T10:00:46;96088.97;;;20.82;100.00
2397;BME280;1209;48.410;9.054;2023-05-09T10:03:15;96081.03;;;21.04;100.00
2397;BME280;1209;48.410;9.054;2023-05-09T10:05:41;96082.22;;;20.58;100.00
2397;BME280;1209;48.410;9.054;2023-05-09T10:08:06;96088.31;;;20.58;100.00
2397;BME280;1209;48.410;9.054;2023-05-09T10:10:34;96081.91;;;20.26;100.00
2397;BME280;1209;48.410;9.054;2023-05-09T10:13:02;96076.66;;;20.59;100.00
2397;BME280;1209;48.410;9.054;2023-05-09T10:15:29;96068.28;;;20.34;100.00
2397;BME280;1209;48.410;9.054;2023-05-09T10:17:59;96064.44;;;20.41;100.00
2397;BME280;1209;48.410;9.054;2023-05-09T10:20:28;96061.00;;;20.29;100.00
2397;BME280;1209;48.410;9.054;2023-05-09T10:22:56;96056.75;;;20.28;100.00
2397;BME280;1209;48.410;9.054;2023-05-09T10:25:29;96047.31;;;21.04;100.00
2397;BME280;1209;48.410;9.054;2023-05-09T10:27:59;96037.88;;;21.57;100.00
2397;BME280;1209;48.410;9.054;2023-05-09T10:30:30;96037.88;;;21.14;100.00
2397;BME280;1209;48.410;9.054;2023-05-09T10:33:07;96040.59;;;21.19;100.00
2397;BME280;1209;48.410;9.054;2023-05-09T10:35:41;96029.81;;;21.25;100.00
2397;BME280;1209;48.410;9.054;2023-05-09T10:38:09;96024.31;;;21.32;100.00
2397;BME280;1209;48.410;9.054;2023-05-09T10:40:37;96023.78;;;21.13;100.00
2397;BME280;1209;48.410;9.054;2023-05-09T10:43:02;96022.25;;;21.17;100.00
2397;BME280;1209;48.410;9.054;2023-05-09T10:45:29;96015.63;;;21.36;100.00
2397;BME280;1209;48.410;9.054;2023-05-09T10:47:56;96015.69;;;21.03;100.00
2397;BME280;1209;48.410;9.054;2023-05-09T10:50:22;96013.88;;;20.48;100.00
2397;BME280;1209;48.410;9.054;2023-05-09T11:00:54;96004.91;;;20.04;100.00
2397;BME280;1209;48.410;9.054;2023-05-09T11:03:20;96006.72;;;19.70;100.00
2397;BME280;1209;48.410;9.054;2023-05-09T11:05:50;96003.53;;;19.16;100.00
2397;BME280;1209;48.410;9.054;2023-05-09T11:08:29;96000.06;;;18.75;100.00
2397;BME280;1209;48.410;9.054;2023-05-09T11:11:04;95983.81;;;18.60;100.00
2397;BME280;1209;48.410;9.054;2023-05-09T11:13:31;95989.13;;;18.48;100.00
2397;BME280;1209;48.410;9.054;2023-05-09T11:18:26;95970.50;;;18.55;100.00
2397;BME280;1209;48.410;9.054;2023-05-09T11:20:53;95958.41;;;18.59;100.00
2397;BME280;1209;48.410;9.054;2023-05-09T11:23:19;95966.59;;;18.69;100.00
2397;BME280;1209;48.410;9.054;2023-05-09T11:25:46;95960.34;;;18.87;100.00
2397;BME280;1209;48.410;9.054;2023-05-09T11:28:29;95957.22;;;19.30;100.00
2397;BME280;1209;48.410;9.054;2023-05-09T11:31:15;95957.09;;;19.82;100.00
2397;BME280;1209;48.410;9.054;2023-05-09T11:33:42;95949.72;;;20.01;100.00
2397;BME280;1209;48.410;9.054;2023-05-09T11:36:20;95951.63;;;20.39;100.00
2397;BME280;1209;48.410;9.054;2023-05-09T11:39:03;95951.72;;;20.83;100.00
2397;BME280;1209;48.410;9.054;2023-05-09T11:41:29;95954.31;;;20.99;100.00
2397;BME280;1209;48.410;9.054;2023-05-09T11:43:55;95942.13;;;21.25;100.00
2397;BME280;1209;48.410;9.054;2023-05-09T11:46:21;95941.91;;;21.54;100.00
2397;BME280;1209;48.410;9.054;2023-05-09T11:48:47;95939.31;;;20.88;100.00
2397;BME280;1209;48.410;9.054;2023-05-09T11:51:19;95933.16;;;20.83;100.00
2397;BME280;1209;48.410;9.054;2023-05-09T11:53:45;95929.97;;;20.42;100.00
2397;BME280;1209;48.410;9.054;2023-05-09T11:56:14;95916.94;;;20.07;100.00
2397;BME280;1209;48.410;9.054;2023-05-09T11:58:40;95904.97;;;20.04;100.00
2397;BME280;1209;48.410;9.054;2023-05-09T12:01:06;95907.53;;;20.16;100.00
2397;BME280;1209;48.410;9.054;2023-05-09T12:03:31;95910.47;;;20.53;100.00
2397;BME280;1209;48.410;9.054;2023-05-09T12:05:57;95902.91;;;20.84;100.00
2397;BME280;1209;48.410;9.054;2023-05-09T12:08:23;95907.63;;;21.52;100.00
2397;BME280;1209;48.410;9.054;2023-05-09T12:10:49;95901.34;;;21.63;100.00
2397;BME280;1209;48.410;9.054;2023-05-09T12:13:14;95894.59;;;21.51;100.00
2397;BME280;1209;48.410;9.054;2023-05-09T12:15:40;95895.06;;;21.21;100.00
2397;BME280;1209;48.410;9.054;2023-05-09T12:18:06;95893.69;;;21.18;100.00
2397;BME280;1209;48.410;9.054;2023-05-09T12:20:40;95882.47;;;21.11;100.00
2397;BME280;1209;48.410;9.054;2023-05-09T12:23:05;95881.66;;;20.62;100.00
2397;BME280;1209;48.410;9.054;2023-05-09T12:25:31;95872.00;;;20.34;100.00
2397;BME280;1209;48.410;9.054;2023-05-09T12:27:56;95874.31;;;20.30;100.00
2397;BME280;1209;48.410;9.054;2023-05-09T12:30:22;95862.63;;;20.09;100.00
2397;BME280;1209;48.410;9.054;2023-05-09T12:32:48;95864.31;;;20.16;100.00
2397;BME280;1209;48.410;9.054;2023-05-09T12:35:13;95862.56;;;20.04;100.00
2397;BME280;1209;48.410;9.054;2023-05-09T12:37:53;95866.84;;;19.89;100.00
2397;BME280;1209;48.410;9.054;2023-05-09T12:40:19;95864.91;;;19.67;100.00
2397;BME280;1209;48.410;9.054;2023-05-09T12:42:44;95857.53;;;19.53;100.00
2397;BME280;1209;48.410;9.054;2023-05-09T12:45:10;95851.75;;;19.72;100.00
2397;BME280;1209;48.410;9.054;2023-05-09T12:47:36;95848.34;;;19.77;100.00
2397;BME280;1209;48.410;9.054;2023-05-09T12:50:08;95854.78;;;19.81;100.00
2397;BME280;1209;48.410;9.054;2023-05-09T12:52:36;95852.00;;;19.88;100.00
2397;BME280;1209;48.410;9.054;2023-05-09T12:55:09;95848.03;;;19.90;100.00
2397;BME280;1209;48.410;9.054;2023-05-09T12:57:35;95847.72;;;19.87;100.00
2397;BME280;1209;48.410;9.054;2023-05-09T13:00:03;95842.09;;;19.66;100.00
2397;BME280;1209;48.410;9.054;2023-05-09T13:02:39;95843.63;;;19.62;100.00
2397;BME280;1209;48.410;9.054;2023-05-09T13:05:10;95836.66;;;19.56;100.00
2397;BME280;1209;48.410;9.054;2023-05-09T13:07:39;95844.13;;;19.59;100.00
2397;BME280;1209;48.410;9.054;2023-05-09T13:10:18;95832.72;;;19.59;100.00
2397;BME280;1209;48.410;9.054;2023-05-09T13:12:46;95845.88;;;19.70;100.00
2397;BME280;1209;48.410;9.054;2023-05-09T13:15:14;95834.06;;;19.78;100.00
2397;BME280;1209;48.410;9.054;2023-05-09T13:17:40;95820.25;;;19.93;100.00
2397;BME280;1209;48.410;9.054;2023-05-09T13:20:06;95815.38;;;20.45;100.00
2397;BME280;1209;48.410;9.054;2023-05-09T13:22:32;95814.16;;;20.53;100.00
2397;BME280;1209;48.410;9.054;2023-05-09T13:24:57;95808.41;;;20.61;100.00
2397;BME280;1209;48.410;9.054;2023-05-09T13:27:22;95811.22;;;20.76;100.00
2397;BME280;1209;48.410;9.054;2023-05-09T13:29:48;95804.53;;;20.95;100.00